sensor_id;sensor_type;location;lat;lon;timestamp;temperature;humidity
5899;DHT22;2975;50.956;6.962;2022-09-02T00:01:49;18.20;75.00
5899;DHT22;2975;50.956;6.962;2022-09-02T00:04:18;18.20;75.10
5899;DHT22;2975;50.956;6.962;2022-09-02T00:06:45;18.20;75.60
5899;DHT22;2975;50.956;6.962;2022-09-02T00:09:15;18.20;75.90
5899;DHT22;2975;50.956;6.962;2022-09-02T00:11:43;18.10;76.10
5899;DHT22;2975;50.956;6.962;2022-09-02T00:14:16;18.00;76.50
5899;DHT22;2975;50.956;6.962;2022-09-02T00:16:42;18.00;79.80
5899;DHT22;2975;50.956;6.962;2022-09-02T00:19:09;18.00;77.70
5899;DHT22;2975;50.956;6.962;2022-09-02T00:21:35;18.00;77.30
5899;DHT22;2975;50.956;6.962;2022-09-02T00:24:03;18.00;77.10
5899;DHT22;2975;50.956;6.962;2022-09-02T00:26:30;18.00;77.10
5899;DHT22;2975;50.956;6.962;2022-09-02T00:28:55;18.00;77.10
5899;DHT22;2975;50.956;6.962;2022-09-02T00:31:22;17.90;77.50
5899;DHT22;2975;50.956;6.962;2022-09-02T00:33:48;17.90;77.40
5899;DHT22;2975;50.956;6.962;2022-09-02T00:36:16;17.80;77.90
5899;DHT22;2975;50.956;6.962;2022-09-02T00:38:41;17.80;78.00
5899;DHT22;2975;50.956;6.962;2022-09-02T00:41:09;17.70;78.70
5899;DHT22;2975;50.956;6.962;2022-09-02T00:43:48;17.70;78.90
5899;DHT22;2975;50.956;6.962;2022-09-02T00:46:19;17.60;78.60
5899;DHT22;2975;50.956;6.962;2022-09-02T00:48:48;17.60;79.10
5899;DHT22;2975;50.956;6.962;2022-09-02T00:51:18;17.60;79.50
5899;DHT22;2975;50.956;6.962;2022-09-02T00:53:46;17.50;80.10
5899;DHT22;2975;50.956;6.962;2022-09-02T00:56:17;17.50;80.30
5899;DHT22;2975;50.956;6.962;2022-09-02T00:58:45;17.40;80.40
5899;DHT22;2975;50.956;6.962;2022-09-02T01:01:11;17.40;80.90
5899;DHT22;2975;50.956;6.962;2022-09-02T01:03:37;17.30;81.10
5899;DHT22;2975;50.956;6.962;2022-09-02T01:06:03;17.30;81.10
5899;DHT22;2975;50.956;6.962;2022-09-02T01:08:32;17.10;81.50
5899;DHT22;2975;50.956;6.962;2022-09-02T01:11:00;17.10;81.90
5899;DHT22;2975;50.956;6.962;2022-09-02T01:13:28;17.00;83.00
5899;DHT22;2975;50.956;6.962;2022-09-02T01:16:01;17.00;83.70
5899;DHT22;2975;50.956;6.962;2022-09-02T01:18:29;16.90;84.90
5899;DHT22;2975;50.956;6.962;2022-09-02T01:20:59;16.80;85.30
5899;DHT22;2975;50.956;6.962;2022-09-02T01:23:26;16.80;85.60
5899;DHT22;2975;50.956;6.962;2022-09-02T01:25:53;16.70;86.30
5899;DHT22;2975;50.956;6.962;2022-09-02T01:28:19;16.70;86.50
5899;DHT22;2975;50.956;6.962;2022-09-02T01:30:49;16.60;87.00
5899;DHT22;2975;50.956;6.962;2022-09-02T01:33:15;16.60;87.60
5899;DHT22;2975;50.956;6.962;2022-09-02T01:35:41;16.60;87.90
5899;DHT22;2975;50.956;6.962;2022-09-02T01:38:08;16.50;87.90
5899;DHT22;2975;50.956;6.962;2022-09-02T01:40:34;16.50;88.30
5899;DHT22;2975;50.956;6.962;2022-09-02T01:43:04;16.50;89.10
5899;DHT22;2975;50.956;6.962;2022-09-02T01:45:33;16.50;89.10
5899;DHT22;2975;50.956;6.962;2022-09-02T01:48:00;16.50;88.70
5899;DHT22;2975;50.956;6.962;2022-09-02T01:50:26;16.60;88.30
5899;DHT22;2975;50.956;6.962;2022-09-02T01:52:52;16.60;88.00
5899;DHT22;2975;50.956;6.962;2022-09-02T01:55:18;16.60;88.00
5899;DHT22;2975;50.956;6.962;2022-09-02T01:57:43;16.70;88.20
5899;DHT22;2975;50.956;6.962;2022-09-02T02:00:11;16.60;88.70
5899;DHT22;2975;50.956;6.962;2022-09-02T02:02:37;16.70;89.00
5899;DHT22;2975;50.956;6.962;2022-09-02T02:05:03;16.60;89.20
5899;DHT22;2975;50.956;6.962;2022-09-02T02:07:29;16.60;89.80
5899;DHT22;2975;50.956;6.962;2022-09-02T02:09:55;16.50;90.10
5899;DHT22;2975;50.956;6.962;2022-09-02T02:12:21;16.50;90.20
5899;DHT22;2975;50.956;6.962;2022-09-02T02:14:46;16.50;90.40
5899;DHT22;2975;50.956;6.962;2022-09-02T02:17:12;16.50;90.60
5899;DHT22;2975;50.956;6.962;2022-09-02T02:19:38;16.40;90.90
5899;DHT22;2975;50.956;6.962;2022-09-02T02:22:03;16.40;91.00
5899;DHT22;2975;50.956;6.962;2022-09-02T02:24:29;16.40;91.20
5899;DHT22;2975;50.956;6.962;2022-09-02T02:26:55;16.30;91.10
5899;DHT22;2975;50.956;6.962;2022-09-02T02:29:22;16.30;91.20
5899;DHT22;2975;50.956;6.962;2022-09-02T02:31:48;16.30;91.50
5899;DHT22;2975;50.956;6.962;2022-09-02T02:34:14;16.30;91.60
5899;DHT22;2975;50.956;6.962;2022-09-02T02:36:41;16.30;91.70
5899;DHT22;2975;50.956;6.962;2022-09-02T02:39:08;16.30;91.80
5899;DHT22;2975;50.956;6.962;2022-09-02T02:41:36;16.30;91.70
5899;DHT22;2975;50.956;6.962;2022-09-02T02:44:02;16.30;91.60
5899;DHT22;2975;50.956;6.962;2022-09-02T02:46:28;16.40;91.60
5899;DHT22;2975;50.956;6.962;2022-09-02T02:48:58;16.40;91.50
5899;DHT22;2975;50.956;6.962;2022-09-02T02:51:24;16.40;91.50
5899;DHT22;2975;50.956;6.962;2022-09-02T02:53:50;16.50;91.40
5899;DHT22;2975;50.956;6.962;2022-09-02T02:56:16;16.50;91.60
5899;DHT22;2975;50.956;6.962;2022-09-02T02:58:41;16.50;91.20
5899;DHT22;2975;50.956;6.962;2022-09-02T03:01:07;16.50;91.30
5899;DHT22;2975;50.956;6.962;2022-09-02T03:03:33;16.50;91.20
5899;DHT22;2975;50.956;6.962;2022-09-02T03:06:00;16.50;91.20
5899;DHT22;2975;50.956;6.962;2022-09-02T03:08:28;16.50;91.20
5899;DHT22;2975;50.956;6.962;2022-09-02T03:10:55;16.50;91.20
5899;DHT22;2975;50.956;6.962;2022-09-02T03:13:22;16.50;91.20
5899;DHT22;2975;50.956;6.962;2022-09-02T03:15:48;16.50;91.20
5899;DHT22;2975;50.956;6.962;2022-09-02T03:18:14;16.50;91.20
5899;DHT22;2975;50.956;6.962;2022-09-02T03:20:40;16.50;91.20
5899;DHT22;2975;50.956;6.962;2022-09-02T03:23:07;16.50;91.10
5899;DHT22;2975;50.956;6.962;2022-09-02T03:25:34;16.60;91.10
5899;DHT22;2975;50.956;6.962;2022-09-02T03:28:01;16.70;91.30
5899;DHT22;2975;50.956;6.962;2022-09-02T03:30:29;16.80;90.90
5899;DHT22;2975;50.956;6.962;2022-09-02T03:32:57;16.80;90.80
5899;DHT22;2975;50.956;6.962;2022-09-02T03:35:24;16.90;90.70
5899;DHT22;2975;50.956;6.962;2022-09-02T03:37:50;16.90;90.40
5899;DHT22;2975;50.956;6.962;2022-09-02T03:40:20;16.90;90.20
5899;DHT22;2975;50.956;6.962;2022-09-02T03:42:46;16.90;90.30
5899;DHT22;2975;50.956;6.962;2022-09-02T03:45:13;16.90;90.30
5899;DHT22;2975;50.956;6.962;2022-09-02T03:47:43;16.90;90.40
5899;DHT22;2975;50.956;6.962;2022-09-02T03:50:16;16.80;90.30
5899;DHT22;2975;50.956;6.962;2022-09-02T03:52:42;16.80;90.40
5899;DHT22;2975;50.956;6.962;2022-09-02T03:55:08;16.90;90.40
5899;DHT22;2975;50.956;6.962;2022-09-02T03:57:35;17.00;90.40
5899;DHT22;2975;50.956;6.962;2022-09-02T04:00:02;17.00;90.10
5899;DHT22;2975;50.956;6.962;2022-09-02T04:02:29;17.00;90.00
5899;DHT22;2975;50.956;6.962;2022-09-02T04:04:54;16.90;89.70
5899;DHT22;2975;50.956;6.962;2022-09-02T04:07:20;16.90;89.80
5899;DHT22;2975;50.956;6.962;2022-09-02T04:09:45;16.80;89.80
5899;DHT22;2975;50.956;6.962;2022-09-02T04:12:11;16.80;90.20
5899;DHT22;2975;50.956;6.962;2022-09-02T04:14:37;16.80;90.10
5899;DHT22;2975;50.956;6.962;2022-09-02T04:17:03;16.90;90.10
5899;DHT22;2975;50.956;6.962;2022-09-02T04:19:28;16.90;90.30
5899;DHT22;2975;50.956;6.962;2022-09-02T04:21:54;16.90;90.40
5899;DHT22;2975;50.956;6.962;2022-09-02T04:24:20;17.00;90.20
5899;DHT22;2975;50.956;6.962;2022-09-02T04:26:45;17.10;90.70
5899;DHT22;2975;50.956;6.962;2022-09-02T04:29:11;17.30;90.20
5899;DHT22;2975;50.956;6.962;2022-09-02T04:31:37;17.40;89.50
5899;DHT22;2975;50.956;6.962;2022-09-02T04:34:03;17.40;90.00
5899;DHT22;2975;50.956;6.962;2022-09-02T04:36:29;17.40;89.70
5899;DHT22;2975;50.956;6.962;2022-09-02T04:38:56;17.50;90.00
5899;DHT22;2975;50.956;6.962;2022-09-02T04:41:25;17.50;88.50
5899;DHT22;2975;50.956;6.962;2022-09-02T04:43:53;17.50;89.10
5899;DHT22;2975;50.956;6.962;2022-09-02T04:46:19;17.50;88.10
5899;DHT22;2975;50.956;6.962;2022-09-02T04:48:45;17.40;88.40
5899;DHT22;2975;50.956;6.962;2022-09-02T04:51:18;17.50;88.00
5899;DHT22;2975;50.956;6.962;2022-09-02T04:53:46;17.60;91.00
5899;DHT22;2975;50.956;6.962;2022-09-02T04:56:14;17.80;89.20
5899;DHT22;2975;50.956;6.962;2022-09-02T04:58:40;17.80;87.50
5899;DHT22;2975;50.956;6.962;2022-09-02T05:01:13;17.90;87.40
5899;DHT22;2975;50.956;6.962;2022-09-02T05:03:40;17.90;86.40
5899;DHT22;2975;50.956;6.962;2022-09-02T05:06:08;17.90;86.60
5899;DHT22;2975;50.956;6.962;2022-09-02T05:08:35;17.80;86.40
5899;DHT22;2975;50.956;6.962;2022-09-02T05:11:10;17.80;86.40
5899;DHT22;2975;50.956;6.962;2022-09-02T05:13:35;17.80;86.90
5899;DHT22;2975;50.956;6.962;2022-09-02T05:16:01;17.80;86.30
5899;DHT22;2975;50.956;6.962;2022-09-02T05:18:28;17.80;86.40
5899;DHT22;2975;50.956;6.962;2022-09-02T05:20:54;17.80;85.80
5899;DHT22;2975;50.956;6.962;2022-09-02T05:23:20;18.20;86.00
5899;DHT22;2975;50.956;6.962;2022-09-02T05:25:45;19.10;83.50
5899;DHT22;2975;50.956;6.962;2022-09-02T05:28:11;20.10;83.00
5899;DHT22;2975;50.956;6.962;2022-09-02T05:30:40;21.20;80.40
5899;DHT22;2975;50.956;6.962;2022-09-02T05:33:06;22.10;76.60
5899;DHT22;2975;50.956;6.962;2022-09-02T05:35:32;23.10;72.50
5899;DHT22;2975;50.956;6.962;2022-09-02T05:37:58;23.10;70.70
5899;DHT22;2975;50.956;6.962;2022-09-02T05:40:24;23.00;69.60
5899;DHT22;2975;50.956;6.962;2022-09-02T05:42:50;23.90;70.60
5899;DHT22;2975;50.956;6.962;2022-09-02T05:45:17;24.30;67.80
5899;DHT22;2975;50.956;6.962;2022-09-02T05:47:43;24.40;65.20
5899;DHT22;2975;50.956;6.962;2022-09-02T05:50:09;23.60;65.80
5899;DHT22;2975;50.956;6.962;2022-09-02T05:52:34;23.50;66.50
5899;DHT22;2975;50.956;6.962;2022-09-02T05:55:00;22.90;66.80
5899;DHT22;2975;50.956;6.962;2022-09-02T05:57:28;22.20;68.00
5899;DHT22;2975;50.956;6.962;2022-09-02T05:59:54;21.60;68.10
5899;DHT22;2975;50.956;6.962;2022-09-02T06:02:22;21.40;70.10
5899;DHT22;2975;50.956;6.962;2022-09-02T06:04:49;21.80;70.30
5899;DHT22;2975;50.956;6.962;2022-09-02T06:07:17;21.70;68.90
5899;DHT22;2975;50.956;6.962;2022-09-02T06:09:43;21.30;70.20
5899;DHT22;2975;50.956;6.962;2022-09-02T06:12:11;21.00;70.70
5899;DHT22;2975;50.956;6.962;2022-09-02T06:14:37;20.90;71.60
5899;DHT22;2975;50.956;6.962;2022-09-02T06:17:03;20.80;71.60
5899;DHT22;2975;50.956;6.962;2022-09-02T06:19:30;20.80;71.70
5899;DHT22;2975;50.956;6.962;2022-09-02T06:21:58;20.80;71.80
5899;DHT22;2975;50.956;6.962;2022-09-02T06:24:25;20.70;71.90
5899;DHT22;2975;50.956;6.962;2022-09-02T06:26:52;20.80;72.10
5899;DHT22;2975;50.956;6.962;2022-09-02T06:29:18;21.00;72.70
5899;DHT22;2975;50.956;6.962;2022-09-02T06:31:46;21.00;72.40
5899;DHT22;2975;50.956;6.962;2022-09-02T06:34:12;21.10;71.80
5899;DHT22;2975;50.956;6.962;2022-09-02T06:36:40;21.10;72.20
5899;DHT22;2975;50.956;6.962;2022-09-02T06:39:06;21.10;72.00
5899;DHT22;2975;50.956;6.962;2022-09-02T06:41:34;21.10;72.40
5899;DHT22;2975;50.956;6.962;2022-09-02T06:44:03;21.10;72.70
5899;DHT22;2975;50.956;6.962;2022-09-02T06:46:33;21.00;73.20
5899;DHT22;2975;50.956;6.962;2022-09-02T06:48:59;21.00;72.40
5899;DHT22;2975;50.956;6.962;2022-09-02T06:51:31;21.00;72.80
5899;DHT22;2975;50.956;6.962;2022-09-02T06:53:57;20.90;72.90
5899;DHT22;2975;50.956;6.962;2022-09-02T06:56:23;20.80;72.90
5899;DHT22;2975;50.956;6.962;2022-09-02T06:58:49;20.70;73.40
5899;DHT22;2975;50.956;6.962;2022-09-02T07:01:23;20.60;73.80
5899;DHT22;2975;50.956;6.962;2022-09-02T07:03:49;20.50;73.90
5899;DHT22;2975;50.956;6.962;2022-09-02T07:06:37;20.40;74.00
5899;DHT22;2975;50.956;6.962;2022-09-02T07:09:07;20.30;74.70
5899;DHT22;2975;50.956;6.962;2022-09-02T07:11:34;20.30;74.40
5899;DHT22;2975;50.956;6.962;2022-09-02T07:14:00;20.30;75.10
5899;DHT22;2975;50.956;6.962;2022-09-02T07:16:31;20.30;74.80
5899;DHT22;2975;50.956;6.962;2022-09-02T07:18:58;20.30;75.10
5899;DHT22;2975;50.956;6.962;2022-09-02T07:21:26;20.40;76.00
5899;DHT22;2975;50.956;6.962;2022-09-02T07:23:53;20.60;75.00
5899;DHT22;2975;50.956;6.962;2022-09-02T07:26:20;20.80;74.90
5899;DHT22;2975;50.956;6.962;2022-09-02T07:28:46;20.90;74.60
5899;DHT22;2975;50.956;6.962;2022-09-02T07:31:14;21.10;73.90
5899;DHT22;2975;50.956;6.962;2022-09-02T07:33:41;21.30;73.70
5899;DHT22;2975;50.956;6.962;2022-09-02T07:36:07;21.50;72.80
5899;DHT22;2975;50.956;6.962;2022-09-02T07:38:35;21.50;72.60
5899;DHT22;2975;50.956;6.962;2022-09-02T07:41:01;21.60;72.50
5899;DHT22;2975;50.956;6.962;2022-09-02T07:43:28;21.60;72.40
5899;DHT22;2975;50.956;6.962;2022-09-02T07:45:55;21.60;73.10
5899;DHT22;2975;50.956;6.962;2022-09-02T07:48:23;21.70;72.80
5899;DHT22;2975;50.956;6.962;2022-09-02T07:50:49;21.60;72.80
5899;DHT22;2975;50.956;6.962;2022-09-02T07:53:15;21.70;72.90
5899;DHT22;2975;50.956;6.962;2022-09-02T07:55:41;21.80;73.30
5899;DHT22;2975;50.956;6.962;2022-09-02T07:58:07;22.00;73.40
5899;DHT22;2975;50.956;6.962;2022-09-02T08:00:33;22.10;72.70
5899;DHT22;2975;50.956;6.962;2022-09-02T08:02:59;22.30;72.90
5899;DHT22;2975;50.956;6.962;2022-09-02T08:05:25;22.40;72.00
5899;DHT22;2975;50.956;6.962;2022-09-02T08:07:52;22.50;71.60
5899;DHT22;2975;50.956;6.962;2022-09-02T08:10:17;22.70;71.40
5899;DHT22;2975;50.956;6.962;2022-09-02T08:12:45;22.90;71.30
5899;DHT22;2975;50.956;6.962;2022-09-02T08:15:12;22.90;71.10
5899;DHT22;2975;50.956;6.962;2022-09-02T08:17:39;23.00;70.60
5899;DHT22;2975;50.956;6.962;2022-09-02T08:20:09;23.00;70.50
5899;DHT22;2975;50.956;6.962;2022-09-02T08:22:36;23.20;69.70
5899;DHT22;2975;50.956;6.962;2022-09-02T08:25:02;23.10;69.50
5899;DHT22;2975;50.956;6.962;2022-09-02T08:27:28;23.10;69.30
5899;DHT22;2975;50.956;6.962;2022-09-02T08:29:54;23.10;69.40
5899;DHT22;2975;50.956;6.962;2022-09-02T08:32:20;23.00;69.70
5899;DHT22;2975;50.956;6.962;2022-09-02T08:34:45;22.80;70.20
5899;DHT22;2975;50.956;6.962;2022-09-02T08:37:11;22.80;70.90
5899;DHT22;2975;50.956;6.962;2022-09-02T08:39:36;22.80;70.40
5899;DHT22;2975;50.956;6.962;2022-09-02T08:44:40;22.80;70.60
5899;DHT22;2975;50.956;6.962;2022-09-02T08:47:13;22.90;70.60
5899;DHT22;2975;50.956;6.962;2022-09-02T08:49:47;22.90;70.10
5899;DHT22;2975;50.956;6.962;2022-09-02T08:52:21;23.00;70.20
5899;DHT22;2975;50.956;6.962;2022-09-02T08:54:54;23.00;70.50
5899;DHT22;2975;50.956;6.962;2022-09-02T08:57:21;23.00;70.30
5899;DHT22;2975;50.956;6.962;2022-09-02T08:59:49;22.90;69.90
5899;DHT22;2975;50.956;6.962;2022-09-02T09:10:54;23.10;69.80
5899;DHT22;2975;50.956;6.962;2022-09-02T09:16:39;23.40;69.60
5899;DHT22;2975;50.956;6.962;2022-09-02T09:19:16;23.30;68.50
5899;DHT22;2975;50.956;6.962;2022-09-02T09:21:46;23.40;68.60
5899;DHT22;2975;50.956;6.962;2022-09-02T09:27:22;23.50;67.60
5899;DHT22;2975;50.956;6.962;2022-09-02T09:29:49;23.50;67.90
5899;DHT22;2975;50.956;6.962;2022-09-02T09:32:27;23.60;66.70
5899;DHT22;2975;50.956;6.962;2022-09-02T09:34:57;23.70;67.10
5899;DHT22;2975;50.956;6.962;2022-09-02T09:37:36;23.70;66.20
5899;DHT22;2975;50.956;6.962;2022-09-02T09:42:52;23.80;65.40
5899;DHT22;2975;50.956;6.962;2022-09-02T09:50:43;23.70;66.50
5899;DHT22;2975;50.956;6.962;2022-09-02T09:56:05;23.50;67.00
5899;DHT22;2975;50.956;6.962;2022-09-02T09:58:43;23.50;66.80
5899;DHT22;2975;50.956;6.962;2022-09-02T10:01:25;23.60;65.60
5899;DHT22;2975;50.956;6.962;2022-09-02T10:04:01;23.80;64.30
5899;DHT22;2975;50.956;6.962;2022-09-02T10:08:58;23.90;65.30
5899;DHT22;2975;50.956;6.962;2022-09-02T10:11:29;24.10;63.90
5899;DHT22;2975;50.956;6.962;2022-09-02T10:14:05;24.20;63.00
5899;DHT22;2975;50.956;6.962;2022-09-02T10:16:35;24.30;63.40
5899;DHT22;2975;50.956;6.962;2022-09-02T10:22:39;24.50;61.90
5899;DHT22;2975;50.956;6.962;2022-09-02T10:30:24;24.70;59.30
5899;DHT22;2975;50.956;6.962;2022-09-02T10:35:58;24.80;58.20
5899;DHT22;2975;50.956;6.962;2022-09-02T10:38:42;24.70;60.60
5899;DHT22;2975;50.956;6.962;2022-09-02T10:41:40;24.70;58.50
5899;DHT22;2975;50.956;6.962;2022-09-02T10:47:06;24.80;57.00
5899;DHT22;2975;50.956;6.962;2022-09-02T10:49:52;24.80;57.50
5899;DHT22;2975;50.956;6.962;2022-09-02T10:55:32;24.90;55.40
5899;DHT22;2975;50.956;6.962;2022-09-02T10:58:12;24.80;55.80
5899;DHT22;2975;50.956;6.962;2022-09-02T11:00:41;24.80;58.60
5899;DHT22;2975;50.956;6.962;2022-09-02T11:03:17;24.80;56.80
5899;DHT22;2975;50.956;6.962;2022-09-02T11:08:36;24.90;56.00
5899;DHT22;2975;50.956;6.962;2022-09-02T11:14:25;24.80;59.10
5899;DHT22;2975;50.956;6.962;2022-09-02T11:16:59;25.00;56.10
5899;DHT22;2975;50.956;6.962;2022-09-02T11:24:50;25.30;53.20
5899;DHT22;2975;50.956;6.962;2022-09-02T11:30:07;25.20;54.40
5899;DHT22;2975;50.956;6.962;2022-09-02T11:35:26;25.40;51.90
5899;DHT22;2975;50.956;6.962;2022-09-02T11:38:04;25.40;52.70
5899;DHT22;2975;50.956;6.962;2022-09-02T11:53:48;25.30;55.70
5899;DHT22;2975;50.956;6.962;2022-09-02T11:56:20;25.40;54.60
5899;DHT22;2975;50.956;6.962;2022-09-02T11:58:50;25.60;54.90
5899;DHT22;2975;50.956;6.962;2022-09-02T12:06:19;25.90;49.90
5899;DHT22;2975;50.956;6.962;2022-09-02T12:17:05;25.60;51.80
5899;DHT22;2975;50.956;6.962;2022-09-02T12:24:52;25.90;49.60
5899;DHT22;2975;50.956;6.962;2022-09-02T12:27:35;25.90;49.10
5899;DHT22;2975;50.956;6.962;2022-09-02T12:30:07;25.80;49.90
5899;DHT22;2975;50.956;6.962;2022-09-02T12:38:28;25.40;54.30
5899;DHT22;2975;50.956;6.962;2022-09-02T12:41:18;25.60;50.60
5899;DHT22;2975;50.956;6.962;2022-09-02T12:44:10;26.00;49.50
5899;DHT22;2975;50.956;6.962;2022-09-02T12:51:56;25.90;50.60
5899;DHT22;2975;50.956;6.962;2022-09-02T12:54:33;25.70;53.60
5899;DHT22;2975;50.956;6.962;2022-09-02T12:57:00;25.70;51.30
5899;DHT22;2975;50.956;6.962;2022-09-02T12:59:35;25.80;51.60
5899;DHT22;2975;50.956;6.962;2022-09-02T13:02:38;25.80;52.80
5899;DHT22;2975;50.956;6.962;2022-09-02T13:05:18;25.70;53.30
5899;DHT22;2975;50.956;6.962;2022-09-02T13:13:38;25.70;54.30
5899;DHT22;2975;50.956;6.962;2022-09-02T13:16:15;25.90;49.70
5899;DHT22;2975;50.956;6.962;2022-09-02T13:27:31;25.90;51.00
5899;DHT22;2975;50.956;6.962;2022-09-02T13:32:37;26.30;49.30
5899;DHT22;2975;50.956;6.962;2022-09-02T13:35:07;26.20;50.60
5899;DHT22;2975;50.956;6.962;2022-09-02T13:37:43;25.90;52.50
5899;DHT22;2975;50.956;6.962;2022-09-02T13:40:30;25.90;51.60
5899;DHT22;2975;50.956;6.962;2022-09-02T13:43:03;26.20;49.70
5899;DHT22;2975;50.956;6.962;2022-09-02T13:45:32;26.30;49.70
5899;DHT22;2975;50.956;6.962;2022-09-02T13:48:01;26.40;49.70
5899;DHT22;2975;50.956;6.962;2022-09-02T13:50:29;26.40;49.10
5899;DHT22;2975;50.956;6.962;2022-09-02T13:53:04;26.40;48.60
5899;DHT22;2975;50.956;6.962;2022-09-02T13:55:32;26.50;49.00
5899;DHT22;2975;50.956;6.962;2022-09-02T13:58:04;26.50;48.60
5899;DHT22;2975;50.956;6.962;2022-09-02T14:00:39;26.40;49.20
5899;DHT22;2975;50.956;6.962;2022-09-02T14:03:17;26.50;50.30
5899;DHT22;2975;50.956;6.962;2022-09-02T14:05:44;26.40;49.30
5899;DHT22;2975;50.956;6.962;2022-09-02T14:08:15;26.30;50.20
5899;DHT22;2975;50.956;6.962;2022-09-02T14:10:42;26.40;49.00
5899;DHT22;2975;50.956;6.962;2022-09-02T14:13:09;26.40;50.00
5899;DHT22;2975;50.956;6.962;2022-09-02T14:15:35;26.20;51.00
5899;DHT22;2975;50.956;6.962;2022-09-02T14:18:14;26.40;49.70
5899;DHT22;2975;50.956;6.962;2022-09-02T14:21:09;26.40;49.70
5899;DHT22;2975;50.956;6.962;2022-09-02T14:23:48;26.50;50.50
5899;DHT22;2975;50.956;6.962;2022-09-02T14:26:24;26.60;48.90
5899;DHT22;2975;50.956;6.962;2022-09-02T14:28:54;26.40;50.80
5899;DHT22;2975;50.956;6.962;2022-09-02T14:31:25;26.10;51.60
5899;DHT22;2975;50.956;6.962;2022-09-02T14:33:55;26.20;49.60
5899;DHT22;2975;50.956;6.962;2022-09-02T14:38:55;26.60;47.30
5899;DHT22;2975;50.956;6.962;2022-09-02T14:41:27;26.60;46.90
5899;DHT22;2975;50.956;6.962;2022-09-02T14:43:57;26.30;48.70
5899;DHT22;2975;50.956;6.962;2022-09-02T14:46:33;26.20;47.30
5899;DHT22;2975;50.956;6.962;2022-09-02T14:49:03;26.20;47.00
5899;DHT22;2975;50.956;6.962;2022-09-02T14:51:36;26.10;47.00
5899;DHT22;2975;50.956;6.962;2022-09-02T14:54:03;26.10;47.70
5899;DHT22;2975;50.956;6.962;2022-09-02T14:56:44;25.90;52.30
5899;DHT22;2975;50.956;6.962;2022-09-02T14:59:09;25.80;50.00
5899;DHT22;2975;50.956;6.962;2022-09-02T15:01:46;25.80;53.00
5899;DHT22;2975;50.956;6.962;2022-09-02T15:04:13;25.60;53.90
5899;DHT22;2975;50.956;6.962;2022-09-02T15:06:40;25.60;51.50
5899;DHT22;2975;50.956;6.962;2022-09-02T15:09:05;25.80;51.10
5899;DHT22;2975;50.956;6.962;2022-09-02T15:11:31;25.80;51.60
5899;DHT22;2975;50.956;6.962;2022-09-02T15:13:57;25.80;46.80
5899;DHT22;2975;50.956;6.962;2022-09-02T15:16:23;25.90;48.80
5899;DHT22;2975;50.956;6.962;2022-09-02T15:18:49;25.90;48.20
5899;DHT22;2975;50.956;6.962;2022-09-02T15:21:15;25.80;48.00
5899;DHT22;2975;50.956;6.962;2022-09-02T15:23:41;25.70;49.40
5899;DHT22;2975;50.956;6.962;2022-09-02T15:26:07;25.60;51.00
5899;DHT22;2975;50.956;6.962;2022-09-02T15:28:33;25.50;52.50
5899;DHT22;2975;50.956;6.962;2022-09-02T15:31:00;25.50;50.60
5899;DHT22;2975;50.956;6.962;2022-09-02T15:33:27;25.40;49.40
5899;DHT22;2975;50.956;6.962;2022-09-02T15:35:53;25.60;47.20
5899;DHT22;2975;50.956;6.962;2022-09-02T15:38:19;25.80;46.40
5899;DHT22;2975;50.956;6.962;2022-09-02T15:40:45;25.70;47.20
5899;DHT22;2975;50.956;6.962;2022-09-02T15:43:11;25.50;48.50
5899;DHT22;2975;50.956;6.962;2022-09-02T15:45:44;25.50;47.70
5899;DHT22;2975;50.956;6.962;2022-09-02T15:48:11;25.40;48.90
5899;DHT22;2975;50.956;6.962;2022-09-02T15:50:37;25.40;50.40
5899;DHT22;2975;50.956;6.962;2022-09-02T15:53:02;25.20;50.10
5899;DHT22;2975;50.956;6.962;2022-09-02T15:55:31;25.20;48.90
5899;DHT22;2975;50.956;6.962;2022-09-02T15:57:57;25.40;48.50
5899;DHT22;2975;50.956;6.962;2022-09-02T16:00:23;25.50;48.00
5899;DHT22;2975;50.956;6.962;2022-09-02T16:02:51;25.30;49.60
5899;DHT22;2975;50.956;6.962;2022-09-02T16:05:17;25.30;48.50
5899;DHT22;2975;50.956;6.962;2022-09-02T16:07:43;25.10;49.90
5899;DHT22;2975;50.956;6.962;2022-09-02T16:10:10;25.10;49.80
5899;DHT22;2975;50.956;6.962;2022-09-02T16:12:35;25.10;48.90
5899;DHT22;2975;50.956;6.962;2022-09-02T16:15:01;25.10;49.80
5899;DHT22;2975;50.956;6.962;2022-09-02T16:17:27;25.10;49.20
5899;DHT22;2975;50.956;6.962;2022-09-02T16:19:52;25.00;51.20
5899;DHT22;2975;50.956;6.962;2022-09-02T16:22:18;24.90;51.60
5899;DHT22;2975;50.956;6.962;2022-09-02T16:24:44;24.90;50.20
5899;DHT22;2975;50.956;6.962;2022-09-02T16:27:09;24.90;49.20
5899;DHT22;2975;50.956;6.962;2022-09-02T16:29:35;25.00;49.10
5899;DHT22;2975;50.956;6.962;2022-09-02T16:32:02;24.90;48.80
5899;DHT22;2975;50.956;6.962;2022-09-02T16:34:28;24.90;50.20
5899;DHT22;2975;50.956;6.962;2022-09-02T16:36:54;24.80;51.20
5899;DHT22;2975;50.956;6.962;2022-09-02T16:39:20;24.70;52.20
5899;DHT22;2975;50.956;6.962;2022-09-02T16:41:48;24.60;51.30
5899;DHT22;2975;50.956;6.962;2022-09-02T16:44:16;24.60;50.90
5899;DHT22;2975;50.956;6.962;2022-09-02T16:46:43;24.60;49.60
5899;DHT22;2975;50.956;6.962;2022-09-02T16:49:11;24.60;50.80
5899;DHT22;2975;50.956;6.962;2022-09-02T16:51:38;24.50;52.60
5899;DHT22;2975;50.956;6.962;2022-09-02T16:54:06;24.50;53.10
5899;DHT22;2975;50.956;6.962;2022-09-02T16:56:32;24.50;50.80
5899;DHT22;2975;50.956;6.962;2022-09-02T16:59:02;24.50;49.80
5899;DHT22;2975;50.956;6.962;2022-09-02T17:01:29;24.50;49.90
5899;DHT22;2975;50.956;6.962;2022-09-02T17:03:55;24.50;51.10
5899;DHT22;2975;50.956;6.962;2022-09-02T17:06:21;24.50;50.90
5899;DHT22;2975;50.956;6.962;2022-09-02T17:08:47;24.40;51.30
5899;DHT22;2975;50.956;6.962;2022-09-02T17:13:53;24.30;50.20
5899;DHT22;2975;50.956;6.962;2022-09-02T17:16:20;24.50;51.30
5899;DHT22;2975;50.956;6.962;2022-09-02T17:18:46;24.30;50.30
5899;DHT22;2975;50.956;6.962;2022-09-02T17:23:47;24.10;50.80
5899;DHT22;2975;50.956;6.962;2022-09-02T17:26:14;24.00;53.00
5899;DHT22;2975;50.956;6.962;2022-09-02T17:28:40;24.00;51.10
5899;DHT22;2975;50.956;6.962;2022-09-02T17:31:31;24.10;52.20
5899;DHT22;2975;50.956;6.962;2022-09-02T17:34:02;24.10;51.90
5899;DHT22;2975;50.956;6.962;2022-09-02T17:36:29;24.10;50.40
5899;DHT22;2975;50.956;6.962;2022-09-02T17:39:10;24.10;50.00
5899;DHT22;2975;50.956;6.962;2022-09-02T17:41:36;24.00;50.30
5899;DHT22;2975;50.956;6.962;2022-09-02T17:44:32;24.00;51.60
5899;DHT22;2975;50.956;6.962;2022-09-02T17:47:00;23.80;51.70
5899;DHT22;2975;50.956;6.962;2022-09-02T17:49:27;23.80;51.50
5899;DHT22;2975;50.956;6.962;2022-09-02T17:51:53;23.80;50.10
5899;DHT22;2975;50.956;6.962;2022-09-02T17:54:19;23.80;50.30
5899;DHT22;2975;50.956;6.962;2022-09-02T17:59:55;23.50;51.20
5899;DHT22;2975;50.956;6.962;2022-09-02T18:10:36;23.40;51.10
5899;DHT22;2975;50.956;6.962;2022-09-02T18:13:08;23.30;51.60
5899;DHT22;2975;50.956;6.962;2022-09-02T18:18:22;23.10;52.00
5899;DHT22;2975;50.956;6.962;2022-09-02T18:21:00;22.90;52.40
5899;DHT22;2975;50.956;6.962;2022-09-02T18:23:52;22.70;52.90
5899;DHT22;2975;50.956;6.962;2022-09-02T18:26:36;22.70;53.10
5899;DHT22;2975;50.956;6.962;2022-09-02T18:45:51;22.10;54.40
5899;DHT22;2975;50.956;6.962;2022-09-02T18:48:22;22.10;54.50
5899;DHT22;2975;50.956;6.962;2022-09-02T18:50:57;22.00;54.40
5899;DHT22;2975;50.956;6.962;2022-09-02T18:53:30;22.00;54.70
5899;DHT22;2975;50.956;6.962;2022-09-02T18:56:04;22.00;55.30
5899;DHT22;2975;50.956;6.962;2022-09-02T18:58:47;21.90;54.90